Prince Rupert Airport
CYPR : now visible

Airfield :











YOU CAN JOIN US ON...

 
LOGIN :

Register | Disclaimer

   EN    FR    IT 

 









Legend :    VFR   Marginal VFR   IFR   Intensive IFR   Very Intensive IFR
Visi :
Ceiling :
>= 8 km
>= 3000ft
5 to 8 km
1000 to 3000 ft
1500m to 5 km
500 to 1000 ft
800 to 1500m
200 to 500 ft
< 800m
< 200 ft
Symbols :   Thunderstorms  Fog  Heavy snow  Heavy precipitations  Wind > 20 kt






- Airport Elevation : 116 ft
- IATA code : YPR


CYPR - Prince Rupert

CURRENT METAR :
  • 060500Z AUTO 00000KT 9SM CLR M01/M01 A2999 RMK SLP158

EXPIRED METARs :
  • 060400Z AUTO 00000KT 9SM CLR M02/M02 A3000 RMK SLP161
  • 060300Z AUTO 08004KT 9SM CLR 00/M00 A2999 RMK SLP160

TAF TAF CYPR
Valid from the 06 at 01:00 until the 06 at 13:00 UTC


060039Z 0601/0613 06005KT P6SM FEW040 SCT120
FM060300 09005KT P6SM SCT120 RMK FCST BASED ON AUTO OBS. NXT FCST BY 060700Z



MET'MAP, your aeronautical weather chart ! - Copyright ORBIFLY December 2007 - Disclaimer

ORBIFLY MET'MAP TEAM :

Programming & Development : Alexandra Zaïnal
Concept & original design : Baudouin d'Aumeries
Assistance for programming : Marc-Olivier Méhu
Technical & hardware support : Manuel Goepfert

Contact : metmap@orbifly.com




SOURCES & CREDITS :

   NOAA       Earth
Advisory